createdAt,value
2023-08-31T00:01:36.842Z,91.50
2023-08-31T00:06:43.435Z,91.53
2023-08-31T00:11:48.358Z,91.50
2023-08-31T00:16:59.014Z,91.50
2023-08-31T00:22:01.779Z,91.51
2023-08-31T00:27:07.936Z,91.54
2023-08-31T00:32:16.997Z,91.54
2023-08-31T00:37:22.318Z,91.54
2023-08-31T00:42:32.355Z,91.50
2023-08-31T00:47:37.727Z,91.54
2023-08-31T00:52:42.319Z,91.53
2023-08-31T00:57:45.868Z,91.54
2023-08-31T01:03:04.759Z,91.54
2023-08-31T01:08:46.973Z,91.54
2023-08-31T01:14:06.762Z,91.54
2023-08-31T01:19:51.150Z,91.51
2023-08-31T01:24:55.276Z,91.51
2023-08-31T01:29:57.985Z,91.58
2023-08-31T01:35:08.258Z,91.60
2023-08-31T01:40:24.735Z,91.63
2023-08-31T01:45:32.339Z,91.60
2023-08-31T01:50:35.152Z,91.60
2023-08-31T01:55:38.387Z,91.64
2023-08-31T02:00:41.275Z,91.65
2023-08-31T02:06:05.807Z,91.64
2023-08-31T02:11:08.521Z,91.64
2023-08-31T02:16:12.872Z,91.64
2023-08-31T02:21:16.715Z,91.67
2023-08-31T02:26:23.901Z,91.68
2023-08-31T02:31:26.703Z,91.67
2023-08-31T02:36:31.368Z,91.71
2023-08-31T02:41:43.107Z,91.65
2023-08-31T02:47:36.184Z,91.67
2023-08-31T02:52:49.762Z,91.69
2023-08-31T02:57:54.233Z,91.72
2023-08-31T03:02:56.957Z,91.71
2023-08-31T03:07:59.756Z,91.81
2023-08-31T03:13:05.816Z,91.82
2023-08-31T03:18:10.979Z,91.86
2023-08-31T03:23:14.311Z,91.88
2023-08-31T03:28:17.217Z,91.88
2023-08-31T03:33:22.362Z,91.88
2023-08-31T03:38:27.118Z,91.93
2023-08-31T03:43:30.209Z,91.93
2023-08-31T03:48:33.016Z,91.99
2023-08-31T03:53:38.363Z,91.93
2023-08-31T03:58:41.045Z,92.01
2023-08-31T04:03:47.013Z,92.01
2023-08-31T04:08:50.097Z,92.00
2023-08-31T04:13:54.437Z,92.03
2023-08-31T04:19:01.437Z,92.07
2023-08-31T04:24:10.858Z,92.06
2023-08-31T04:29:20.071Z,92.01
2023-08-31T04:34:28.195Z,92.04
2023-08-31T04:39:33.318Z,92.07
2023-08-31T04:44:42.562Z,92.08
2023-08-31T04:49:45.338Z,92.14
2023-08-31T04:54:48.205Z,92.11
2023-08-31T05:00:15.448Z,92.15
2023-08-31T05:05:23.214Z,92.17
2023-08-31T05:10:35.359Z,92.14
2023-08-31T05:15:40.479Z,92.21
2023-08-31T05:20:52.045Z,92.21
2023-08-31T05:25:55.010Z,92.15
2023-08-31T05:31:01.660Z,92.17
2023-08-31T05:36:08.490Z,92.23
2023-08-31T05:41:11.163Z,92.09
2023-08-31T05:46:14.148Z,92.15
2023-08-31T05:51:19.387Z,92.11
2023-08-31T05:56:22.125Z,92.15
2023-08-31T06:01:24.766Z,92.13
2023-08-31T06:06:27.604Z,92.13
2023-08-31T06:11:32.056Z,92.08
2023-08-31T06:16:38.871Z,92.17
2023-08-31T06:21:42.483Z,92.14
2023-08-31T06:26:45.341Z,92.15
2023-08-31T06:31:48.069Z,92.05
2023-08-31T06:36:56.666Z,92.04
2023-08-31T06:42:03.355Z,92.07
2023-08-31T06:47:06.297Z,92.07
2023-08-31T06:52:21.731Z,92.01
2023-08-31T06:57:35.776Z,92.03
2023-08-31T07:02:42.910Z,91.96
2023-08-31T07:07:45.684Z,92.03
2023-08-31T07:12:48.619Z,92.11
2023-08-31T07:18:38.717Z,91.93
2023-08-31T07:23:41.934Z,91.76
2023-08-31T07:28:44.736Z,91.87
2023-08-31T07:33:50.561Z,91.93
2023-08-31T07:38:53.397Z,91.88
2023-08-31T07:44:24.633Z,91.90
2023-08-31T07:51:24.339Z,92.01
2023-08-31T07:56:26.978Z,91.86
2023-08-31T08:02:48.390Z,91.62
2023-08-31T08:13:48.366Z,91.32
2023-08-31T08:18:54.575Z,91.21
2023-08-31T08:30:38.367Z,91.36
2023-08-31T08:44:19.444Z,91.13
2023-08-31T08:49:24.465Z,90.82
2023-08-31T08:54:28.695Z,90.82
2023-08-31T09:00:03.542Z,90.71
2023-08-31T09:05:09.579Z,90.20
2023-08-31T09:10:13.339Z,89.92
2023-08-31T09:15:16.111Z,90.13
2023-08-31T09:24:00.642Z,89.68
2023-08-31T10:16:21.218Z,90.49
2023-08-31T10:21:40.327Z,90.90
2023-08-31T10:26:51.608Z,90.45
2023-08-31T10:32:04.407Z,90.60
2023-08-31T10:37:22.587Z,90.40
2023-08-31T10:42:25.271Z,89.75
2023-08-31T10:47:42.662Z,89.89
2023-08-31T10:52:48.444Z,88.99
2023-08-31T10:58:12.973Z,89.18
2023-08-31T11:03:16.007Z,89.74
2023-08-31T11:08:27.447Z,88.04
2023-08-31T11:19:08.346Z,87.62
2023-08-31T11:24:41.674Z,86.96
2023-08-31T11:29:59.911Z,87.57
2023-08-31T11:35:08.854Z,85.88
2023-08-31T11:40:12.397Z,88.08
2023-08-31T11:45:20.249Z,87.54
2023-08-31T11:56:51.956Z,86.25
2023-08-31T12:03:17.400Z,85.26
2023-08-31T12:08:29.056Z,83.39
2023-08-31T12:13:36.307Z,83.39
2023-08-31T12:18:53.658Z,84.43
2023-08-31T12:24:03.536Z,85.57
2023-08-31T12:29:16.525Z,85.22
2023-08-31T12:34:19.258Z,84.56
2023-08-31T12:39:22.015Z,81.67
2023-08-31T12:44:29.920Z,81.49
2023-08-31T12:49:35.098Z,81.04
2023-08-31T12:54:37.937Z,79.63
2023-08-31T12:59:43.669Z,78.73
2023-08-31T13:04:47.103Z,78.53
2023-08-31T13:09:53.114Z,78.50
2023-08-31T13:14:56.072Z,79.63
2023-08-31T13:20:05.208Z,77.49
2023-08-31T13:25:12.539Z,75.46
2023-08-31T13:30:15.462Z,75.82
2023-08-31T13:35:18.396Z,77.75
2023-08-31T13:40:21.125Z,78.83
2023-08-31T13:45:29.853Z,78.94
2023-08-31T13:50:33.888Z,79.30
2023-08-31T13:55:39.299Z,79.74
2023-08-31T14:00:43.345Z,79.89
2023-08-31T14:05:52.482Z,79.99
2023-08-31T14:11:05.327Z,80.31
2023-08-31T14:16:26.185Z,80.67
2023-08-31T14:21:31.595Z,80.93
2023-08-31T14:26:36.608Z,81.35
2023-08-31T14:31:44.797Z,81.63
2023-08-31T14:36:51.805Z,81.79
2023-08-31T14:41:58.898Z,81.78
2023-08-31T14:47:01.626Z,81.82
2023-08-31T14:52:09.641Z,81.97
2023-08-31T14:57:15.957Z,82.07
2023-08-31T15:02:22.749Z,81.88
2023-08-31T15:07:26.870Z,81.82
2023-08-31T15:12:31.653Z,81.70
2023-08-31T15:17:35.673Z,81.94
2023-08-31T15:22:54.425Z,82.07
2023-08-31T15:27:57.063Z,82.16
2023-08-31T15:33:04.662Z,82.24
2023-08-31T15:38:09.769Z,82.39
2023-08-31T15:43:12.670Z,82.49
2023-08-31T15:48:19.717Z,82.57
2023-08-31T15:53:25.674Z,82.69
2023-08-31T15:58:31.151Z,82.76
2023-08-31T16:03:49.331Z,82.84
2023-08-31T16:30:35.652Z,83.13
2023-08-31T16:49:06.077Z,84.87
2023-08-31T16:54:08.975Z,84.43
2023-08-31T16:59:11.625Z,84.10
2023-08-31T17:05:19.648Z,84.11
2023-08-31T17:23:10.051Z,84.25
2023-08-31T17:28:32.217Z,84.29
2023-08-31T17:33:34.377Z,84.23
2023-08-31T17:38:41.473Z,84.38
2023-08-31T17:43:42.841Z,84.42
2023-08-31T17:49:12.099Z,84.54
2023-08-31T17:54:13.500Z,84.37
2023-08-31T17:59:25.799Z,84.46
2023-08-31T18:04:27.080Z,84.45
2023-08-31T18:09:37.081Z,84.48
2023-08-31T18:14:44.449Z,84.43
2023-08-31T18:19:46.261Z,84.61
2023-08-31T18:24:47.737Z,84.69
2023-08-31T18:29:50.191Z,84.74
2023-08-31T18:34:53.534Z,84.85
2023-08-31T18:39:57.259Z,84.44
2023-08-31T18:45:02.794Z,84.13
2023-08-31T18:50:10.974Z,83.74
2023-08-31T18:55:15.504Z,83.49
2023-08-31T19:00:17.658Z,83.64
2023-08-31T19:05:19.023Z,83.71
2023-08-31T19:10:25.084Z,83.74
2023-08-31T19:15:28.714Z,83.63
2023-08-31T19:21:19.731Z,83.61
2023-08-31T19:26:24.990Z,83.69
2023-08-31T19:31:55.393Z,83.83
2023-08-31T19:36:56.770Z,83.84
2023-08-31T19:42:01.189Z,83.94
2023-08-31T19:47:14.778Z,84.01
2023-08-31T19:52:16.960Z,83.99
2023-08-31T19:57:20.753Z,83.97
2023-08-31T20:02:24.292Z,84.13
2023-08-31T20:07:28.261Z,84.06
2023-08-31T20:12:31.726Z,84.05
2023-08-31T20:17:48.437Z,84.14
2023-08-31T20:23:38.659Z,84.21
2023-08-31T20:28:47.182Z,84.26
2023-08-31T20:33:51.283Z,84.36
2023-08-31T20:38:52.860Z,84.60
2023-08-31T20:44:03.596Z,84.58
2023-08-31T20:49:05.896Z,84.58
2023-08-31T20:54:07.941Z,84.49
2023-08-31T20:59:12.302Z,84.56
2023-08-31T21:04:16.867Z,84.57
2023-08-31T21:09:18.296Z,84.51
2023-08-31T21:14:19.673Z,84.70
2023-08-31T21:19:22.465Z,84.60
2023-08-31T21:24:24.940Z,84.57
2023-08-31T21:29:26.250Z,84.61
2023-08-31T21:34:30.717Z,84.55
2023-08-31T21:39:34.259Z,84.51
2023-08-31T21:44:35.726Z,84.56
2023-08-31T21:49:39.065Z,84.50
2023-08-31T21:54:40.474Z,84.56
2023-08-31T21:59:44.396Z,84.64
2023-08-31T22:04:45.811Z,84.63
2023-08-31T22:09:52.009Z,84.68
2023-08-31T22:14:55.934Z,84.71
2023-08-31T22:19:59.360Z,84.70
2023-08-31T22:25:01.511Z,84.80
2023-08-31T22:30:04.913Z,84.88
2023-08-31T22:35:11.957Z,84.94
2023-08-31T22:40:16.019Z,84.94
2023-08-31T22:45:19.880Z,84.99
2023-08-31T22:50:26.622Z,85.07
2023-08-31T22:55:30.532Z,85.08
2023-08-31T23:00:33.623Z,85.07
2023-08-31T23:05:34.974Z,85.17
2023-08-31T23:10:42.296Z,85.20
2023-08-31T23:15:45.945Z,85.31
2023-08-31T23:20:53.079Z,85.36
2023-08-31T23:25:54.568Z,85.45
2023-08-31T23:31:02.290Z,85.44
2023-08-31T23:36:08.170Z,85.53
2023-08-31T23:41:10.059Z,85.62
2023-08-31T23:46:11.820Z,85.67
2023-08-31T23:51:13.270Z,85.69
2023-08-31T23:56:17.842Z,85.64
